sensor_id;sensor_type;location;lat;lon;timestamp;pressure;altitude;pressure_sealevel;temperature;humidity
66664;BME280;59683;51.428;-1.994;2023-02-20T11:02:22;101708.63;;;9.72;100.00
66664;BME280;59683;51.428;-1.994;2023-02-20T11:13:15;101711.56;;;9.68;100.00
66664;BME280;59683;51.428;-1.994;2023-02-20T11:15:42;101722.34;;;9.79;100.00
66664;BME280;59683;51.428;-1.994;2023-02-20T11:30:15;101700.41;;;10.07;100.00
66664;BME280;59683;51.428;-1.994;2023-02-20T11:32:45;101693.41;;;10.06;100.00
66664;BME280;59683;51.428;-1.994;2023-02-20T11:35:34;101702.19;;;10.07;100.00
66664;BME280;59683;51.428;-1.994;2023-02-20T11:44:31;101704.31;;;10.30;100.00
66664;BME280;59683;51.428;-1.994;2023-02-20T11:53:30;101682.97;;;10.48;100.00
66664;BME280;59683;51.428;-1.994;2023-02-20T11:56:13;101679.00;;;10.55;100.00
66664;BME280;59683;51.428;-1.994;2023-02-20T11:58:41;101663.41;;;10.50;100.00
66664;BME280;59683;51.428;-1.994;2023-02-20T12:01:11;101661.97;;;10.59;100.00
66664;BME280;59683;51.428;-1.994;2023-02-20T12:10:24;101662.09;;;10.99;100.00
66664;BME280;59683;51.428;-1.994;2023-02-20T12:12:52;101652.84;;;10.91;100.00
66664;BME280;59683;51.428;-1.994;2023-02-20T12:15:22;101658.38;;;11.28;100.00
66664;BME280;59683;51.428;-1.994;2023-02-20T12:18:14;101653.31;;;11.38;100.00
66664;BME280;59683;51.428;-1.994;2023-02-20T12:20:57;101641.16;;;11.48;100.00
66664;BME280;59683;51.428;-1.994;2023-02-20T12:23:35;101638.97;;;11.55;100.00
66664;BME280;59683;51.428;-1.994;2023-02-20T12:33:51;101636.91;;;11.85;100.00
66664;BME280;59683;51.428;-1.994;2023-02-20T12:38:49;101627.56;;;11.93;100.00
66664;BME280;59683;51.428;-1.994;2023-02-20T12:52:26;101596.53;;;11.80;100.00
66664;BME280;59683;51.428;-1.994;2023-02-20T12:58:15;101588.06;;;11.88;100.00
66664;BME280;59683;51.428;-1.994;2023-02-20T13:00:53;101587.03;;;11.90;100.00
66664;BME280;59683;51.428;-1.994;2023-02-20T13:03:28;101585.84;;;11.82;100.00
66664;BME280;59683;51.428;-1.994;2023-02-20T13:05:58;101587.53;;;11.70;100.00
66664;BME280;59683;51.428;-1.994;2023-02-20T13:08:28;101583.25;;;11.80;100.00
66664;BME280;59683;51.428;-1.994;2023-02-20T13:13:25;101575.44;;;11.79;100.00
66664;BME280;59683;51.428;-1.994;2023-02-20T13:16:03;101572.41;;;11.85;100.00
66664;BME280;59683;51.428;-1.994;2023-02-20T13:18:46;101573.41;;;11.70;100.00
66664;BME280;59683;51.428;-1.994;2023-02-20T13:21:17;101559.94;;;11.60;100.00
66664;BME280;59683;51.428;-1.994;2023-02-20T13:23:46;101567.47;;;11.79;100.00
66664;BME280;59683;51.428;-1.994;2023-02-20T13:29:15;101550.41;;;11.70;100.00
66664;BME280;59683;51.428;-1.994;2023-02-20T13:31:47;101545.81;;;11.72;100.00
66664;BME280;59683;51.428;-1.994;2023-02-20T13:36:49;101534.38;;;11.72;100.00
66664;BME280;59683;51.428;-1.994;2023-02-20T13:52:46;101506.41;;;12.17;100.00
66664;BME280;59683;51.428;-1.994;2023-02-20T13:55:24;101512.97;;;12.24;100.00
66664;BME280;59683;51.428;-1.994;2023-02-20T13:57:54;101511.28;;;12.23;100.00
66664;BME280;59683;51.428;-1.994;2023-02-20T14:00:28;101504.91;;;12.26;100.00
66664;BME280;59683;51.428;-1.994;2023-02-20T14:02:58;101505.50;;;12.42;100.00
66664;BME280;59683;51.428;-1.994;2023-02-20T14:05:31;101505.44;;;12.31;100.00
66664;BME280;59683;51.428;-1.994;2023-02-20T14:07:58;101492.38;;;12.28;100.00
66664;BME280;59683;51.428;-1.994;2023-02-20T14:13:17;101492.81;;;11.85;100.00
66664;BME280;59683;51.428;-1.994;2023-02-20T14:15:51;101499.69;;;11.75;100.00
66664;BME280;59683;51.428;-1.994;2023-02-20T14:18:28;101497.25;;;11.84;100.00
66664;BME280;59683;51.428;-1.994;2023-02-20T14:20:58;101508.81;;;11.83;100.00
66664;BME280;59683;51.428;-1.994;2023-02-20T14:23:29;101506.16;;;11.96;100.00
66664;BME280;59683;51.428;-1.994;2023-02-20T14:26:04;101483.97;;;11.84;100.00
66664;BME280;59683;51.428;-1.994;2023-02-20T14:28:32;101493.22;;;11.79;100.00
66664;BME280;59683;51.428;-1.994;2023-02-20T14:33:55;101493.31;;;11.90;100.00
66664;BME280;59683;51.428;-1.994;2023-02-20T14:36:27;101490.34;;;11.82;100.00
66664;BME280;59683;51.428;-1.994;2023-02-20T14:45:29;101481.00;;;11.76;100.00
66664;BME280;59683;51.428;-1.994;2023-02-20T14:47:57;101477.50;;;11.76;100.00
66664;BME280;59683;51.428;-1.994;2023-02-20T14:50:36;101474.44;;;11.69;100.00
66664;BME280;59683;51.428;-1.994;2023-02-20T14:53:13;101478.34;;;11.76;100.00
66664;BME280;59683;51.428;-1.994;2023-02-20T14:55:42;101470.06;;;11.81;100.00
66664;BME280;59683;51.428;-1.994;2023-02-20T14:58:17;101477.84;;;11.84;100.00
66664;BME280;59683;51.428;-1.994;2023-02-20T15:00:43;101472.19;;;11.76;100.00
66664;BME280;59683;51.428;-1.994;2023-02-20T15:03:18;101463.53;;;11.61;100.00
66664;BME280;59683;51.428;-1.994;2023-02-20T15:05:44;101465.22;;;11.75;100.00
66664;BME280;59683;51.428;-1.994;2023-02-20T15:10:44;101458.84;;;11.90;100.00
66664;BME280;59683;51.428;-1.994;2023-02-20T15:13:17;101453.88;;;11.85;100.00
66664;BME280;59683;51.428;-1.994;2023-02-20T15:15:49;101469.53;;;11.76;100.00
66664;BME280;59683;51.428;-1.994;2023-02-20T15:18:32;101472.75;;;11.68;100.00
66664;BME280;59683;51.428;-1.994;2023-02-20T15:20:58;101463.81;;;11.69;100.00
66664;BME280;59683;51.428;-1.994;2023-02-20T15:23:32;101459.22;;;11.47;100.00
66664;BME280;59683;51.428;-1.994;2023-02-20T15:26:33;101450.38;;;11.47;100.00
66664;BME280;59683;51.428;-1.994;2023-02-20T15:31:44;101462.59;;;11.36;100.00
66664;BME280;59683;51.428;-1.994;2023-02-20T15:34:21;101460.38;;;11.30;100.00
66664;BME280;59683;51.428;-1.994;2023-02-20T15:36:48;101453.28;;;11.18;100.00
66664;BME280;59683;51.428;-1.994;2023-02-20T15:39:15;101452.31;;;11.19;100.00
66664;BME280;59683;51.428;-1.994;2023-02-20T15:41:41;101448.47;;;10.98;100.00
66664;BME280;59683;51.428;-1.994;2023-02-20T15:44:06;101444.66;;;11.02;100.00
66664;BME280;59683;51.428;-1.994;2023-02-20T15:46:32;101451.66;;;11.03;100.00
66664;BME280;59683;51.428;-1.994;2023-02-20T15:48:58;101445.81;;;10.85;100.00
66664;BME280;59683;51.428;-1.994;2023-02-20T15:51:24;101442.53;;;10.81;100.00
66664;BME280;59683;51.428;-1.994;2023-02-20T15:53:59;101442.00;;;10.76;100.00
66664;BME280;59683;51.428;-1.994;2023-02-20T15:56:28;101445.16;;;10.68;100.00
66664;BME280;59683;51.428;-1.994;2023-02-20T16:02:18;101460.47;;;10.63;100.00
66664;BME280;59683;51.428;-1.994;2023-02-20T16:04:46;101459.31;;;10.55;100.00
66664;BME280;59683;51.428;-1.994;2023-02-20T16:07:12;101447.63;;;10.44;100.00
66664;BME280;59683;51.428;-1.994;2023-02-20T16:12:54;101460.50;;;10.36;100.00
66664;BME280;59683;51.428;-1.994;2023-02-20T16:15:21;101456.25;;;10.34;100.00
66664;BME280;59683;51.428;-1.994;2023-02-20T16:17:47;101460.03;;;10.30;100.00
66664;BME280;59683;51.428;-1.994;2023-02-20T16:41:10;101436.38;;;10.00;100.00
66664;BME280;59683;51.428;-1.994;2023-02-20T16:57:46;101447.28;;;9.81;100.00
